sensor_id;sensor_type;location;lat;lon;timestamp;P1;durP1;ratioP1;P2;durP2;ratioP2
75774;SDS011;64505;51.458;7.556;2023-07-20T00:00:55;10.93;;;5.50;;
75774;SDS011;64505;51.458;7.556;2023-07-20T00:03:12;17.00;;;5.47;;
75774;SDS011;64505;51.458;7.556;2023-07-20T00:05:20;11.80;;;5.40;;
75774;SDS011;64505;51.458;7.556;2023-07-20T00:07:26;10.98;;;5.30;;
75774;SDS011;64505;51.458;7.556;2023-07-20T00:09:27;15.55;;;5.60;;
75774;SDS011;64505;51.458;7.556;2023-07-20T00:11:29;11.98;;;5.43;;
75774;SDS011;64505;51.458;7.556;2023-07-20T00:13:30;12.77;;;6.00;;
75774;SDS011;64505;51.458;7.556;2023-07-20T00:15:32;12.02;;;6.03;;
75774;SDS011;64505;51.458;7.556;2023-07-20T00:17:33;11.38;;;5.63;;
75774;SDS011;64505;51.458;7.556;2023-07-20T00:19:35;10.43;;;5.45;;
75774;SDS011;64505;51.458;7.556;2023-07-20T00:21:36;9.07;;;6.10;;
75774;SDS011;64505;51.458;7.556;2023-07-20T00:23:41;11.40;;;6.15;;
75774;SDS011;64505;51.458;7.556;2023-07-20T00:25:42;11.27;;;6.40;;
75774;SDS011;64505;51.458;7.556;2023-07-20T00:27:44;11.13;;;6.20;;
75774;SDS011;64505;51.458;7.556;2023-07-20T00:29:45;11.23;;;5.95;;
75774;SDS011;64505;51.458;7.556;2023-07-20T00:31:47;13.23;;;6.28;;
75774;SDS011;64505;51.458;7.556;2023-07-20T00:33:52;14.80;;;7.03;;
75774;SDS011;64505;51.458;7.556;2023-07-20T00:35:53;11.15;;;7.05;;
75774;SDS011;64505;51.458;7.556;2023-07-20T00:37:55;10.40;;;6.63;;
75774;SDS011;64505;51.458;7.556;2023-07-20T00:39:56;12.82;;;6.90;;
75774;SDS011;64505;51.458;7.556;2023-07-20T00:41:58;14.90;;;7.55;;
75774;SDS011;64505;51.458;7.556;2023-07-20T00:43:59;14.75;;;7.40;;
75774;SDS011;64505;51.458;7.556;2023-07-20T00:46:01;14.35;;;7.63;;
75774;SDS011;64505;51.458;7.556;2023-07-20T00:48:04;13.30;;;7.80;;
75774;SDS011;64505;51.458;7.556;2023-07-20T00:50:07;14.77;;;7.18;;
75774;SDS011;64505;51.458;7.556;2023-07-20T00:52:10;11.82;;;6.45;;
75774;SDS011;64505;51.458;7.556;2023-07-20T00:54:14;13.68;;;7.30;;
75774;SDS011;64505;51.458;7.556;2023-07-20T00:56:16;13.57;;;8.20;;
75774;SDS011;64505;51.458;7.556;2023-07-20T00:58:18;12.48;;;7.18;;
75774;SDS011;64505;51.458;7.556;2023-07-20T01:00:20;15.93;;;7.00;;
75774;SDS011;64505;51.458;7.556;2023-07-20T01:02:21;14.63;;;7.45;;
75774;SDS011;64505;51.458;7.556;2023-07-20T01:04:23;15.00;;;8.10;;
75774;SDS011;64505;51.458;7.556;2023-07-20T01:06:26;17.65;;;7.88;;
75774;SDS011;64505;51.458;7.556;2023-07-20T01:08:40;14.82;;;7.68;;
75774;SDS011;64505;51.458;7.556;2023-07-20T01:10:57;13.73;;;7.88;;
75774;SDS011;64505;51.458;7.556;2023-07-20T01:13:07;14.95;;;8.23;;
75774;SDS011;64505;51.458;7.556;2023-07-20T01:15:10;15.55;;;7.72;;
75774;SDS011;64505;51.458;7.556;2023-07-20T01:17:13;13.10;;;8.55;;
75774;SDS011;64505;51.458;7.556;2023-07-20T01:19:15;14.00;;;7.82;;
75774;SDS011;64505;51.458;7.556;2023-07-20T01:21:18;12.48;;;7.90;;
75774;SDS011;64505;51.458;7.556;2023-07-20T01:25:34;13.35;;;7.43;;
75774;SDS011;64505;51.458;7.556;2023-07-20T01:32:35;11.18;;;6.65;;
75774;SDS011;64505;51.458;7.556;2023-07-20T01:34:38;13.57;;;8.20;;
75774;SDS011;64505;51.458;7.556;2023-07-20T01:36:41;14.48;;;8.02;;
75774;SDS011;64505;51.458;7.556;2023-07-20T01:38:45;12.90;;;7.68;;
75774;SDS011;64505;51.458;7.556;2023-07-20T01:40:47;13.65;;;7.82;;
75774;SDS011;64505;51.458;7.556;2023-07-20T01:42:49;10.77;;;7.78;;
75774;SDS011;64505;51.458;7.556;2023-07-20T01:44:53;11.63;;;7.78;;
75774;SDS011;64505;51.458;7.556;2023-07-20T01:46:54;12.65;;;7.57;;
75774;SDS011;64505;51.458;7.556;2023-07-20T01:48:56;10.45;;;6.65;;
75774;SDS011;64505;51.458;7.556;2023-07-20T01:50:58;12.32;;;7.82;;
75774;SDS011;64505;51.458;7.556;2023-07-20T01:53:00;14.48;;;7.28;;
75774;SDS011;64505;51.458;7.556;2023-07-20T01:55:02;11.85;;;7.47;;
75774;SDS011;64505;51.458;7.556;2023-07-20T01:57:03;12.75;;;7.18;;
75774;SDS011;64505;51.458;7.556;2023-07-20T01:59:05;12.10;;;7.75;;
75774;SDS011;64505;51.458;7.556;2023-07-20T02:01:07;12.90;;;6.93;;
75774;SDS011;64505;51.458;7.556;2023-07-20T02:03:08;14.18;;;8.20;;
75774;SDS011;64505;51.458;7.556;2023-07-20T02:05:10;13.60;;;7.15;;
75774;SDS011;64505;51.458;7.556;2023-07-20T02:07:12;10.38;;;7.60;;
75774;SDS011;64505;51.458;7.556;2023-07-20T02:09:13;11.15;;;7.30;;
75774;SDS011;64505;51.458;7.556;2023-07-20T02:11:14;11.38;;;7.43;;
75774;SDS011;64505;51.458;7.556;2023-07-20T02:13:16;11.50;;;6.35;;
75774;SDS011;64505;51.458;7.556;2023-07-20T02:15:17;11.35;;;7.00;;
75774;SDS011;64505;51.458;7.556;2023-07-20T02:17:20;13.93;;;7.75;;
75774;SDS011;64505;51.458;7.556;2023-07-20T02:19:21;11.73;;;7.43;;
75774;SDS011;64505;51.458;7.556;2023-07-20T02:21:23;10.63;;;6.97;;
75774;SDS011;64505;51.458;7.556;2023-07-20T02:23:24;10.35;;;6.50;;
75774;SDS011;64505;51.458;7.556;2023-07-20T02:25:26;11.52;;;7.47;;
75774;SDS011;64505;51.458;7.556;2023-07-20T02:27:27;12.15;;;7.72;;
75774;SDS011;64505;51.458;7.556;2023-07-20T02:29:29;11.48;;;6.70;;
75774;SDS011;64505;51.458;7.556;2023-07-20T02:31:30;19.35;;;7.60;;
75774;SDS011;64505;51.458;7.556;2023-07-20T02:33:32;12.07;;;7.10;;
75774;SDS011;64505;51.458;7.556;2023-07-20T02:35:33;11.55;;;7.38;;
75774;SDS011;64505;51.458;7.556;2023-07-20T02:37:35;11.75;;;7.20;;
75774;SDS011;64505;51.458;7.556;2023-07-20T02:39:38;11.00;;;7.10;;
75774;SDS011;64505;51.458;7.556;2023-07-20T02:41:41;13.38;;;7.00;;
75774;SDS011;64505;51.458;7.556;2023-07-20T02:43:42;12.85;;;7.63;;
75774;SDS011;64505;51.458;7.556;2023-07-20T02:45:46;12.20;;;7.65;;
75774;SDS011;64505;51.458;7.556;2023-07-20T02:47:48;13.50;;;8.30;;
75774;SDS011;64505;51.458;7.556;2023-07-20T02:49:49;11.57;;;7.57;;
75774;SDS011;64505;51.458;7.556;2023-07-20T02:51:51;11.23;;;7.05;;
75774;SDS011;64505;51.458;7.556;2023-07-20T02:53:52;13.65;;;7.20;;
75774;SDS011;64505;51.458;7.556;2023-07-20T02:55:54;14.65;;;8.05;;
75774;SDS011;64505;51.458;7.556;2023-07-20T02:57:55;13.55;;;7.75;;
75774;SDS011;64505;51.458;7.556;2023-07-20T02:59:57;11.60;;;7.55;;
75774;SDS011;64505;51.458;7.556;2023-07-20T03:01:58;12.93;;;7.32;;
75774;SDS011;64505;51.458;7.556;2023-07-20T03:04:00;15.43;;;7.88;;
75774;SDS011;64505;51.458;7.556;2023-07-20T03:06:01;14.00;;;7.72;;
75774;SDS011;64505;51.458;7.556;2023-07-20T03:08:03;13.27;;;7.85;;
75774;SDS011;64505;51.458;7.556;2023-07-20T03:10:07;15.07;;;8.85;;
75774;SDS011;64505;51.458;7.556;2023-07-20T03:12:10;17.77;;;8.88;;
75774;SDS011;64505;51.458;7.556;2023-07-20T03:14:12;15.27;;;9.20;;
75774;SDS011;64505;51.458;7.556;2023-07-20T03:16:15;18.30;;;9.27;;
75774;SDS011;64505;51.458;7.556;2023-07-20T03:18:19;19.98;;;9.32;;
75774;SDS011;64505;51.458;7.556;2023-07-20T03:20:20;15.85;;;8.43;;
75774;SDS011;64505;51.458;7.556;2023-07-20T03:22:22;17.75;;;8.63;;
75774;SDS011;64505;51.458;7.556;2023-07-20T03:24:23;15.48;;;8.38;;
75774;SDS011;64505;51.458;7.556;2023-07-20T03:26:25;11.60;;;7.55;;
75774;SDS011;64505;51.458;7.556;2023-07-20T03:28:26;15.48;;;7.60;;
75774;SDS011;64505;51.458;7.556;2023-07-20T03:30:28;13.48;;;7.35;;
75774;SDS011;64505;51.458;7.556;2023-07-20T03:32:29;11.13;;;7.38;;
75774;SDS011;64505;51.458;7.556;2023-07-20T03:34:31;11.60;;;7.30;;
75774;SDS011;64505;51.458;7.556;2023-07-20T03:36:33;11.57;;;7.22;;
75774;SDS011;64505;51.458;7.556;2023-07-20T03:38:34;11.35;;;6.93;;
75774;SDS011;64505;51.458;7.556;2023-07-20T03:40:36;12.80;;;6.82;;
75774;SDS011;64505;51.458;7.556;2023-07-20T03:42:37;11.95;;;6.38;;
75774;SDS011;64505;51.458;7.556;2023-07-20T03:44:42;12.43;;;5.82;;
75774;SDS011;64505;51.458;7.556;2023-07-20T03:46:44;10.73;;;5.63;;
75774;SDS011;64505;51.458;7.556;2023-07-20T03:48:45;9.85;;;6.00;;
75774;SDS011;64505;51.458;7.556;2023-07-20T03:50:47;9.05;;;5.53;;
75774;SDS011;64505;51.458;7.556;2023-07-20T03:52:50;11.68;;;5.97;;
75774;SDS011;64505;51.458;7.556;2023-07-20T03:54:51;8.77;;;5.50;;
75774;SDS011;64505;51.458;7.556;2023-07-20T03:56:53;10.27;;;5.38;;
75774;SDS011;64505;51.458;7.556;2023-07-20T03:58:54;9.13;;;5.35;;
75774;SDS011;64505;51.458;7.556;2023-07-20T04:00:56;10.52;;;5.40;;
75774;SDS011;64505;51.458;7.556;2023-07-20T04:02:58;11.57;;;5.80;;
75774;SDS011;64505;51.458;7.556;2023-07-20T04:05:00;11.32;;;5.93;;
75774;SDS011;64505;51.458;7.556;2023-07-20T04:07:02;10.23;;;6.20;;
75774;SDS011;64505;51.458;7.556;2023-07-20T04:09:03;10.25;;;5.88;;
75774;SDS011;64505;51.458;7.556;2023-07-20T04:11:06;9.10;;;5.70;;
75774;SDS011;64505;51.458;7.556;2023-07-20T04:13:08;10.38;;;7.03;;
75774;SDS011;64505;51.458;7.556;2023-07-20T04:15:09;10.02;;;6.97;;
75774;SDS011;64505;51.458;7.556;2023-07-20T04:17:11;12.70;;;7.63;;
75774;SDS011;64505;51.458;7.556;2023-07-20T04:19:14;10.80;;;6.78;;
75774;SDS011;64505;51.458;7.556;2023-07-20T04:21:15;10.38;;;7.30;;
75774;SDS011;64505;51.458;7.556;2023-07-20T04:23:17;11.77;;;7.63;;
75774;SDS011;64505;51.458;7.556;2023-07-20T04:25:19;10.07;;;7.47;;
75774;SDS011;64505;51.458;7.556;2023-07-20T04:27:20;12.15;;;7.70;;
75774;SDS011;64505;51.458;7.556;2023-07-20T04:29:21;12.13;;;7.80;;
75774;SDS011;64505;51.458;7.556;2023-07-20T04:31:23;13.30;;;7.30;;
75774;SDS011;64505;51.458;7.556;2023-07-20T04:33:24;12.50;;;7.97;;
75774;SDS011;64505;51.458;7.556;2023-07-20T04:35:52;13.18;;;7.75;;
75774;SDS011;64505;51.458;7.556;2023-07-20T04:37:55;13.02;;;7.75;;
75774;SDS011;64505;51.458;7.556;2023-07-20T04:39:56;14.25;;;9.18;;
75774;SDS011;64505;51.458;7.556;2023-07-20T04:41:58;12.95;;;8.20;;
75774;SDS011;64505;51.458;7.556;2023-07-20T04:43:59;12.10;;;7.63;;
75774;SDS011;64505;51.458;7.556;2023-07-20T04:46:00;12.45;;;8.63;;
75774;SDS011;64505;51.458;7.556;2023-07-20T04:48:02;13.43;;;9.00;;
75774;SDS011;64505;51.458;7.556;2023-07-20T04:50:04;15.80;;;10.00;;
75774;SDS011;64505;51.458;7.556;2023-07-20T04:52:06;14.48;;;9.25;;
75774;SDS011;64505;51.458;7.556;2023-07-20T04:54:09;21.83;;;10.52;;
75774;SDS011;64505;51.458;7.556;2023-07-20T04:56:10;11.85;;;8.02;;
75774;SDS011;64505;51.458;7.556;2023-07-20T04:58:12;11.90;;;8.35;;
75774;SDS011;64505;51.458;7.556;2023-07-20T05:00:13;14.10;;;8.20;;
75774;SDS011;64505;51.458;7.556;2023-07-20T05:02:15;12.40;;;8.55;;
75774;SDS011;64505;51.458;7.556;2023-07-20T05:04:16;12.30;;;8.18;;
75774;SDS011;64505;51.458;7.556;2023-07-20T05:06:19;13.13;;;8.20;;
75774;SDS011;64505;51.458;7.556;2023-07-20T05:08:21;14.82;;;9.85;;
75774;SDS011;64505;51.458;7.556;2023-07-20T05:10:23;14.23;;;9.57;;
75774;SDS011;64505;51.458;7.556;2023-07-20T05:12:25;15.75;;;9.48;;
75774;SDS011;64505;51.458;7.556;2023-07-20T05:14:27;14.52;;;10.05;;
75774;SDS011;64505;51.458;7.556;2023-07-20T05:16:28;14.50;;;9.88;;
75774;SDS011;64505;51.458;7.556;2023-07-20T05:18:30;13.70;;;9.75;;
75774;SDS011;64505;51.458;7.556;2023-07-20T05:20:32;14.23;;;8.93;;
75774;SDS011;64505;51.458;7.556;2023-07-20T05:22:34;13.93;;;9.43;;
75774;SDS011;64505;51.458;7.556;2023-07-20T05:24:36;14.70;;;10.43;;
75774;SDS011;64505;51.458;7.556;2023-07-20T05:26:37;15.13;;;10.00;;
75774;SDS011;64505;51.458;7.556;2023-07-20T05:28:39;16.15;;;10.63;;
75774;SDS011;64505;51.458;7.556;2023-07-20T05:30:40;14.02;;;9.93;;
75774;SDS011;64505;51.458;7.556;2023-07-20T05:32:42;15.27;;;10.35;;
75774;SDS011;64505;51.458;7.556;2023-07-20T05:34:43;15.07;;;10.05;;
75774;SDS011;64505;51.458;7.556;2023-07-20T05:36:45;12.00;;;8.10;;
75774;SDS011;64505;51.458;7.556;2023-07-20T05:38:46;13.57;;;8.82;;
75774;SDS011;64505;51.458;7.556;2023-07-20T05:40:48;12.43;;;8.45;;
75774;SDS011;64505;51.458;7.556;2023-07-20T05:42:49;12.23;;;7.38;;
75774;SDS011;64505;51.458;7.556;2023-07-20T05:44:53;11.90;;;7.68;;
75774;SDS011;64505;51.458;7.556;2023-07-20T05:46:56;12.00;;;7.30;;
75774;SDS011;64505;51.458;7.556;2023-07-20T05:48:58;10.90;;;6.53;;
75774;SDS011;64505;51.458;7.556;2023-07-20T05:51:00;11.23;;;7.07;;
75774;SDS011;64505;51.458;7.556;2023-07-20T05:53:01;8.05;;;5.97;;
75774;SDS011;64505;51.458;7.556;2023-07-20T05:55:03;9.77;;;6.03;;
75774;SDS011;64505;51.458;7.556;2023-07-20T05:57:05;9.65;;;6.35;;
75774;SDS011;64505;51.458;7.556;2023-07-20T05:59:06;9.50;;;6.13;;
75774;SDS011;64505;51.458;7.556;2023-07-20T06:01:08;9.82;;;6.20;;
75774;SDS011;64505;51.458;7.556;2023-07-20T06:03:09;10.13;;;5.68;;
75774;SDS011;64505;51.458;7.556;2023-07-20T06:05:11;7.90;;;5.80;;
75774;SDS011;64505;51.458;7.556;2023-07-20T06:07:13;8.40;;;6.05;;
75774;SDS011;64505;51.458;7.556;2023-07-20T06:09:14;8.35;;;6.30;;
75774;SDS011;64505;51.458;7.556;2023-07-20T06:11:16;9.57;;;6.70;;
75774;SDS011;64505;51.458;7.556;2023-07-20T06:13:18;9.27;;;5.88;;
75774;SDS011;64505;51.458;7.556;2023-07-20T06:15:23;8.98;;;6.05;;
75774;SDS011;64505;51.458;7.556;2023-07-20T06:17:27;7.65;;;5.43;;
75774;SDS011;64505;51.458;7.556;2023-07-20T06:19:29;9.95;;;5.50;;
75774;SDS011;64505;51.458;7.556;2023-07-20T06:21:30;8.60;;;5.15;;
75774;SDS011;64505;51.458;7.556;2023-07-20T06:23:32;8.68;;;5.40;;
75774;SDS011;64505;51.458;7.556;2023-07-20T06:25:33;9.68;;;5.18;;
75774;SDS011;64505;51.458;7.556;2023-07-20T06:27:35;7.55;;;4.63;;
75774;SDS011;64505;51.458;7.556;2023-07-20T06:29:36;5.82;;;3.45;;
75774;SDS011;64505;51.458;7.556;2023-07-20T06:31:38;6.18;;;3.85;;
75774;SDS011;64505;51.458;7.556;2023-07-20T06:33:39;6.22;;;3.95;;
75774;SDS011;64505;51.458;7.556;2023-07-20T06:35:41;6.80;;;3.97;;
75774;SDS011;64505;51.458;7.556;2023-07-20T06:37:44;5.78;;;3.63;;
75774;SDS011;64505;51.458;7.556;2023-07-20T06:39:45;7.18;;;4.13;;
75774;SDS011;64505;51.458;7.556;2023-07-20T06:41:50;5.35;;;3.60;;
75774;SDS011;64505;51.458;7.556;2023-07-20T06:43:55;7.07;;;3.78;;
75774;SDS011;64505;51.458;7.556;2023-07-20T06:45:59;6.30;;;4.07;;
75774;SDS011;64505;51.458;7.556;2023-07-20T06:48:01;5.47;;;3.42;;
75774;SDS011;64505;51.458;7.556;2023-07-20T06:50:03;6.35;;;3.88;;
75774;SDS011;64505;51.458;7.556;2023-07-20T06:52:05;5.60;;;3.88;;
75774;SDS011;64505;51.458;7.556;2023-07-20T06:54:07;5.95;;;3.50;;
75774;SDS011;64505;51.458;7.556;2023-07-20T06:56:08;7.10;;;3.83;;
75774;SDS011;64505;51.458;7.556;2023-07-20T06:58:11;6.88;;;4.38;;
75774;SDS011;64505;51.458;7.556;2023-07-20T07:00:13;6.63;;;4.32;;
75774;SDS011;64505;51.458;7.556;2023-07-20T07:02:14;6.53;;;4.00;;
75774;SDS011;64505;51.458;7.556;2023-07-20T07:04:16;6.57;;;3.67;;
75774;SDS011;64505;51.458;7.556;2023-07-20T07:06:17;5.05;;;3.47;;
75774;SDS011;64505;51.458;7.556;2023-07-20T07:08:19;6.22;;;3.35;;
75774;SDS011;64505;51.458;7.556;2023-07-20T07:10:20;5.50;;;3.35;;
75774;SDS011;64505;51.458;7.556;2023-07-20T07:12:22;5.88;;;3.50;;
75774;SDS011;64505;51.458;7.556;2023-07-20T07:14:23;6.15;;;3.88;;
75774;SDS011;64505;51.458;7.556;2023-07-20T07:16:28;5.70;;;3.83;;
75774;SDS011;64505;51.458;7.556;2023-07-20T07:18:30;5.32;;;3.78;;
75774;SDS011;64505;51.458;7.556;2023-07-20T07:20:32;6.70;;;3.45;;
75774;SDS011;64505;51.458;7.556;2023-07-20T07:22:33;8.00;;;3.08;;
75774;SDS011;64505;51.458;7.556;2023-07-20T07:24:35;5.47;;;3.00;;
75774;SDS011;64505;51.458;7.556;2023-07-20T07:26:37;6.05;;;3.45;;
75774;SDS011;64505;51.458;7.556;2023-07-20T07:28:38;5.53;;;3.40;;
75774;SDS011;64505;51.458;7.556;2023-07-20T07:30:40;5.65;;;3.60;;
75774;SDS011;64505;51.458;7.556;2023-07-20T07:32:41;6.28;;;3.42;;
75774;SDS011;64505;51.458;7.556;2023-07-20T07:34:43;6.22;;;3.80;;
75774;SDS011;64505;51.458;7.556;2023-07-20T07:36:47;6.20;;;3.85;;
75774;SDS011;64505;51.458;7.556;2023-07-20T07:38:49;6.78;;;4.15;;
75774;SDS011;64505;51.458;7.556;2023-07-20T07:41:10;8.00;;;4.00;;
75774;SDS011;64505;51.458;7.556;2023-07-20T07:43:12;8.25;;;5.03;;
75774;SDS011;64505;51.458;7.556;2023-07-20T07:45:15;10.40;;;6.70;;
75774;SDS011;64505;51.458;7.556;2023-07-20T07:47:17;10.95;;;6.38;;
75774;SDS011;64505;51.458;7.556;2023-07-20T07:49:19;10.68;;;6.70;;
75774;SDS011;64505;51.458;7.556;2023-07-20T07:51:20;11.15;;;7.68;;
75774;SDS011;64505;51.458;7.556;2023-07-20T07:53:22;12.68;;;8.02;;
75774;SDS011;64505;51.458;7.556;2023-07-20T07:55:24;13.93;;;7.72;;
75774;SDS011;64505;51.458;7.556;2023-07-20T07:57:26;11.52;;;6.93;;
75774;SDS011;64505;51.458;7.556;2023-07-20T07:59:28;12.13;;;6.90;;
75774;SDS011;64505;51.458;7.556;2023-07-20T08:01:30;9.68;;;5.28;;
75774;SDS011;64505;51.458;7.556;2023-07-20T08:03:31;8.32;;;4.70;;
75774;SDS011;64505;51.458;7.556;2023-07-20T08:05:33;5.80;;;3.55;;
75774;SDS011;64505;51.458;7.556;2023-07-20T08:07:36;6.70;;;3.65;;
75774;SDS011;64505;51.458;7.556;2023-07-20T08:09:38;5.05;;;3.00;;
75774;SDS011;64505;51.458;7.556;2023-07-20T08:11:39;3.97;;;2.58;;
75774;SDS011;64505;51.458;7.556;2023-07-20T08:13:41;4.75;;;3.17;;
75774;SDS011;64505;51.458;7.556;2023-07-20T08:15:48;5.60;;;3.08;;
75774;SDS011;64505;51.458;7.556;2023-07-20T08:17:50;5.63;;;3.00;;
75774;SDS011;64505;51.458;7.556;2023-07-20T08:19:53;4.15;;;2.40;;
75774;SDS011;64505;51.458;7.556;2023-07-20T08:21:55;4.40;;;2.42;;
75774;SDS011;64505;51.458;7.556;2023-07-20T08:23:56;3.80;;;2.75;;
75774;SDS011;64505;51.458;7.556;2023-07-20T08:25:58;3.70;;;2.10;;
75774;SDS011;64505;51.458;7.556;2023-07-20T08:27:59;4.63;;;1.88;;
75774;SDS011;64505;51.458;7.556;2023-07-20T08:30:02;5.68;;;1.83;;
75774;SDS011;64505;51.458;7.556;2023-07-20T08:32:05;4.00;;;2.05;;
75774;SDS011;64505;51.458;7.556;2023-07-20T08:34:07;3.15;;;2.15;;
75774;SDS011;64505;51.458;7.556;2023-07-20T08:36:24;5.55;;;2.17;;
75774;SDS011;64505;51.458;7.556;2023-07-20T08:38:27;3.78;;;2.10;;
75774;SDS011;64505;51.458;7.556;2023-07-20T08:40:29;4.30;;;2.30;;
75774;SDS011;64505;51.458;7.556;2023-07-20T08:42:31;4.07;;;2.35;;
75774;SDS011;64505;51.458;7.556;2023-07-20T08:44:33;3.85;;;2.40;;
75774;SDS011;64505;51.458;7.556;2023-07-20T08:46:35;7.05;;;2.50;;
75774;SDS011;64505;51.458;7.556;2023-07-20T08:48:40;4.35;;;2.55;;
75774;SDS011;64505;51.458;7.556;2023-07-20T08:50:43;3.15;;;2.20;;
75774;SDS011;64505;51.458;7.556;2023-07-20T08:52:46;3.35;;;2.13;;
75774;SDS011;64505;51.458;7.556;2023-07-20T08:54:49;3.78;;;2.00;;
75774;SDS011;64505;51.458;7.556;2023-07-20T08:56:53;4.40;;;2.30;;
75774;SDS011;64505;51.458;7.556;2023-07-20T08:58:56;4.80;;;2.05;;
75774;SDS011;64505;51.458;7.556;2023-07-20T09:00:58;3.42;;;2.03;;
75774;SDS011;64505;51.458;7.556;2023-07-20T09:03:03;4.30;;;1.77;;
75774;SDS011;64505;51.458;7.556;2023-07-20T09:05:07;3.60;;;2.10;;
75774;SDS011;64505;51.458;7.556;2023-07-20T09:07:11;3.80;;;2.08;;
75774;SDS011;64505;51.458;7.556;2023-07-20T09:09:13;3.20;;;1.80;;
75774;SDS011;64505;51.458;7.556;2023-07-20T09:11:15;3.65;;;1.65;;
75774;SDS011;64505;51.458;7.556;2023-07-20T09:13:16;2.80;;;1.33;;
75774;SDS011;64505;51.458;7.556;2023-07-20T09:15:18;2.88;;;1.30;;
75774;SDS011;64505;51.458;7.556;2023-07-20T09:17:21;2.55;;;1.27;;
75774;SDS011;64505;51.458;7.556;2023-07-20T09:19:26;2.85;;;1.00;;
75774;SDS011;64505;51.458;7.556;2023-07-20T09:21:29;2.15;;;1.00;;
75774;SDS011;64505;51.458;7.556;2023-07-20T09:23:38;2.72;;;1.00;;
75774;SDS011;64505;51.458;7.556;2023-07-20T09:25:42;3.70;;;1.00;;
75774;SDS011;64505;51.458;7.556;2023-07-20T09:27:44;1.95;;;0.90;;
75774;SDS011;64505;51.458;7.556;2023-07-20T09:29:48;2.10;;;0.90;;
75774;SDS011;64505;51.458;7.556;2023-07-20T09:31:59;1.77;;;1.10;;
75774;SDS011;64505;51.458;7.556;2023-07-20T09:34:04;2.63;;;0.80;;
75774;SDS011;64505;51.458;7.556;2023-07-20T09:36:06;3.03;;;0.90;;
75774;SDS011;64505;51.458;7.556;2023-07-20T09:38:32;2.47;;;0.95;;
75774;SDS011;64505;51.458;7.556;2023-07-20T09:40:53;2.20;;;0.75;;
75774;SDS011;64505;51.458;7.556;2023-07-20T09:42:56;1.88;;;0.95;;
75774;SDS011;64505;51.458;7.556;2023-07-20T09:45:08;2.05;;;1.00;;
75774;SDS011;64505;51.458;7.556;2023-07-20T09:47:10;2.08;;;1.10;;
75774;SDS011;64505;51.458;7.556;2023-07-20T09:49:11;2.00;;;0.98;;
75774;SDS011;64505;51.458;7.556;2023-07-20T09:51:16;1.80;;;0.75;;
75774;SDS011;64505;51.458;7.556;2023-07-20T09:53:19;1.45;;;0.70;;
75774;SDS011;64505;51.458;7.556;2023-07-20T09:55:21;2.15;;;0.80;;
75774;SDS011;64505;51.458;7.556;2023-07-20T09:57:25;1.55;;;0.90;;
75774;SDS011;64505;51.458;7.556;2023-07-20T09:59:27;1.73;;;0.60;;
75774;SDS011;64505;51.458;7.556;2023-07-20T10:01:28;1.08;;;0.70;;
75774;SDS011;64505;51.458;7.556;2023-07-20T10:03:32;1.00;;;0.60;;
75774;SDS011;64505;51.458;7.556;2023-07-20T10:05:43;1.48;;;0.75;;
75774;SDS011;64505;51.458;7.556;2023-07-20T10:07:48;2.53;;;0.75;;
75774;SDS011;64505;51.458;7.556;2023-07-20T10:09:51;1.40;;;0.70;;
75774;SDS011;64505;51.458;7.556;2023-07-20T10:11:54;1.50;;;0.60;;
75774;SDS011;64505;51.458;7.556;2023-07-20T10:14:16;3.80;;;0.77;;
75774;SDS011;64505;51.458;7.556;2023-07-20T10:18:30;1.77;;;0.90;;
75774;SDS011;64505;51.458;7.556;2023-07-20T10:20:36;1.23;;;0.60;;
75774;SDS011;64505;51.458;7.556;2023-07-20T10:23:02;1.30;;;0.50;;
75774;SDS011;64505;51.458;7.556;2023-07-20T10:25:05;2.25;;;0.63;;
75774;SDS011;64505;51.458;7.556;2023-07-20T10:27:08;1.02;;;0.60;;
75774;SDS011;64505;51.458;7.556;2023-07-20T10:29:10;2.60;;;0.68;;
75774;SDS011;64505;51.458;7.556;2023-07-20T10:31:13;2.50;;;0.80;;
75774;SDS011;64505;51.458;7.556;2023-07-20T10:33:17;2.65;;;0.60;;
75774;SDS011;64505;51.458;7.556;2023-07-20T10:35:20;1.38;;;0.63;;
75774;SDS011;64505;51.458;7.556;2023-07-20T10:39:49;1.58;;;0.50;;
75774;SDS011;64505;51.458;7.556;2023-07-20T10:44:11;2.15;;;0.60;;
75774;SDS011;64505;51.458;7.556;2023-07-20T10:46:14;1.15;;;0.40;;
75774;SDS011;64505;51.458;7.556;2023-07-20T10:48:17;2.75;;;0.70;;
75774;SDS011;64505;51.458;7.556;2023-07-20T10:50:20;1.50;;;0.47;;
75774;SDS011;64505;51.458;7.556;2023-07-20T10:52:24;2.17;;;0.70;;
75774;SDS011;64505;51.458;7.556;2023-07-20T10:56:27;1.90;;;0.70;;
75774;SDS011;64505;51.458;7.556;2023-07-20T10:58:32;0.95;;;0.50;;
75774;SDS011;64505;51.458;7.556;2023-07-20T11:00:34;1.17;;;0.40;;
75774;SDS011;64505;51.458;7.556;2023-07-20T11:02:43;1.95;;;0.50;;
75774;SDS011;64505;51.458;7.556;2023-07-20T11:04:46;1.00;;;0.47;;
75774;SDS011;64505;51.458;7.556;2023-07-20T11:06:55;1.33;;;0.57;;
75774;SDS011;64505;51.458;7.556;2023-07-20T11:11:29;1.52;;;0.50;;
75774;SDS011;64505;51.458;7.556;2023-07-20T11:13:33;1.33;;;0.52;;
75774;SDS011;64505;51.458;7.556;2023-07-20T11:18:16;0.73;;;0.60;;
75774;SDS011;64505;51.458;7.556;2023-07-20T11:20:20;1.75;;;0.50;;
75774;SDS011;64505;51.458;7.556;2023-07-20T11:22:23;2.55;;;0.60;;
75774;SDS011;64505;51.458;7.556;2023-07-20T11:24:25;1.17;;;0.60;;
75774;SDS011;64505;51.458;7.556;2023-07-20T11:26:26;4.28;;;0.60;;
75774;SDS011;64505;51.458;7.556;2023-07-20T11:28:29;1.88;;;0.82;;
75774;SDS011;64505;51.458;7.556;2023-07-20T11:30:32;2.42;;;0.73;;
75774;SDS011;64505;51.458;7.556;2023-07-20T11:32:35;1.55;;;0.73;;
75774;SDS011;64505;51.458;7.556;2023-07-20T11:34:37;1.70;;;1.00;;
75774;SDS011;64505;51.458;7.556;2023-07-20T11:36:39;1.75;;;0.65;;
75774;SDS011;64505;51.458;7.556;2023-07-20T11:38:48;1.77;;;0.75;;
75774;SDS011;64505;51.458;7.556;2023-07-20T11:40:49;2.38;;;0.80;;
75774;SDS011;64505;51.458;7.556;2023-07-20T11:42:51;3.45;;;1.20;;
75774;SDS011;64505;51.458;7.556;2023-07-20T11:44:57;1.95;;;0.80;;
75774;SDS011;64505;51.458;7.556;2023-07-20T11:49:11;1.50;;;0.90;;
75774;SDS011;64505;51.458;7.556;2023-07-20T11:51:14;2.17;;;0.93;;
75774;SDS011;64505;51.458;7.556;2023-07-20T11:53:18;2.58;;;1.00;;
75774;SDS011;64505;51.458;7.556;2023-07-20T11:55:20;1.95;;;1.00;;
75774;SDS011;64505;51.458;7.556;2023-07-20T11:57:22;2.95;;;1.38;;
75774;SDS011;64505;51.458;7.556;2023-07-20T11:59:23;2.15;;;1.15;;
75774;SDS011;64505;51.458;7.556;2023-07-20T12:01:25;1.92;;;0.88;;
75774;SDS011;64505;51.458;7.556;2023-07-20T12:03:32;1.90;;;0.90;;
75774;SDS011;64505;51.458;7.556;2023-07-20T12:05:34;2.10;;;1.08;;
75774;SDS011;64505;51.458;7.556;2023-07-20T12:07:56;2.90;;;1.13;;
75774;SDS011;64505;51.458;7.556;2023-07-20T12:10:07;2.92;;;1.02;;
75774;SDS011;64505;51.458;7.556;2023-07-20T12:14:15;1.90;;;0.90;;
75774;SDS011;64505;51.458;7.556;2023-07-20T12:16:19;2.30;;;0.98;;
75774;SDS011;64505;51.458;7.556;2023-07-20T12:18:22;2.33;;;1.00;;
75774;SDS011;64505;51.458;7.556;2023-07-20T12:20:28;1.50;;;1.00;;
75774;SDS011;64505;51.458;7.556;2023-07-20T12:22:39;3.15;;;1.10;;
75774;SDS011;64505;51.458;7.556;2023-07-20T12:24:42;1.75;;;0.90;;
75774;SDS011;64505;51.458;7.556;2023-07-20T12:26:43;1.23;;;0.98;;
75774;SDS011;64505;51.458;7.556;2023-07-20T12:28:45;1.58;;;1.10;;
75774;SDS011;64505;51.458;7.556;2023-07-20T12:30:46;2.42;;;1.00;;
75774;SDS011;64505;51.458;7.556;2023-07-20T12:32:52;1.58;;;1.02;;
75774;SDS011;64505;51.458;7.556;2023-07-20T12:34:54;2.20;;;1.10;;
75774;SDS011;64505;51.458;7.556;2023-07-20T12:36:55;1.80;;;1.10;;
75774;SDS011;64505;51.458;7.556;2023-07-20T12:38:57;2.33;;;1.08;;
75774;SDS011;64505;51.458;7.556;2023-07-20T12:41:02;2.33;;;1.10;;